Time;durP1;ratioP1;P1;durP2;ratioP2;P2;SDS_P1;SDS_P2;PMS_P1;PMS_P2;Temp;Humidity;BMP_temperature;BMP_pressure;BME280_temperature;BME280_humidity;BME280_pressure;Samples;Min_cycle;Max_cycle;Signal;HPM_P1;HPM_P2
2022/11/01 00:00:07;;;;;;;10.77;5.20;;;;;;;8.05;100.00;93076.03;2135590;27;20026;-72
2022/11/01 00:01:09;;;;;;;13.65;5.43;;;;;;;7.98;100.00;93082.19;2135079;27;20095;-71
2022/11/01 00:02:10;;;;;;;11.30;5.03;;;;;;;7.96;100.00;93076.53;2134429;27;20022;-73
2022/11/01 00:03:10;;;;;;;9.50;5.50;;;;;;;7.91;100.00;93076.22;2134819;27;20346;-71
2022/11/01 00:04:11;;;;;;;11.48;4.85;;;;;;;7.95;100.00;93072.38;2135501;27;20041;-71
2022/11/01 00:05:12;;;;;;;9.38;5.03;;;;;;;7.96;100.00;93079.19;2125999;27;20019;-71
2022/11/01 00:06:14;;;;;;;11.85;5.35;;;;;;;7.92;100.00;93080.38;2124536;27;20031;-71
2022/11/01 00:07:15;;;;;;;12.15;5.63;;;;;;;7.95;100.00;93074.28;2125065;27;20521;-71
2022/11/01 00:08:16;;;;;;;18.50;6.00;;;;;;;7.98;100.00;93070.78;2126349;27;20027;-72
2022/11/01 00:09:17;;;;;;;9.48;5.30;;;;;;;7.91;100.00;93074.31;2134860;27;20022;-72
2022/11/01 00:10:18;;;;;;;10.73;6.05;;;;;;;7.97;100.00;93072.72;2135138;27;20049;-72
2022/11/01 00:11:19;;;;;;;12.48;5.60;;;;;;;7.95;100.00;93075.03;2133656;27;20083;-72
2022/11/01 00:12:20;;;;;;;5.60;4.97;;;;;;;7.92;100.00;93067.84;2135525;27;20026;-71
2022/11/01 00:13:21;;;;;;;19.17;5.97;;;;;;;7.89;100.00;93070.53;2134640;27;20368;-71
2022/11/01 00:14:22;;;;;;;10.70;5.20;;;;;;;7.97;100.00;93063.97;2132019;27;20025;-72
2022/11/01 00:15:23;;;;;;;8.65;5.18;;;;;;;7.94;100.00;93062.09;2138409;27;20720;-73
2022/11/01 00:16:24;;;;;;;12.10;5.72;;;;;;;7.95;100.00;93056.41;2134943;27;20042;-73
2022/11/01 00:17:25;;;;;;;7.50;5.25;;;;;;;7.96;100.00;93059.81;2134787;27;20878;-71
2022/11/01 00:18:26;;;;;;;7.15;5.15;;;;;;;7.98;100.00;93060.91;2134321;27;20030;-72
2022/11/01 00:19:27;;;;;;;16.10;5.20;;;;;;;7.96;100.00;93059.81;2135057;27;20483;-72
2022/11/01 00:20:28;;;;;;;10.60;5.38;;;;;;;7.99;100.00;93062.44;2135117;27;20026;-71
2022/11/01 00:21:30;;;;;;;14.52;5.45;;;;;;;7.96;100.00;93063.22;2135035;27;20405;-71
2022/11/01 00:22:30;;;;;;;7.80;4.85;;;;;;;8.00;100.00;93055.94;2130774;27;20026;-71
2022/11/01 00:23:31;;;;;;;11.35;5.00;;;;;;;7.99;100.00;93065.09;2126886;27;20038;-72
2022/11/01 00:24:32;;;;;;;10.60;5.15;;;;;;;7.96;100.00;93063.22;2135004;27;20031;-73
2022/11/01 00:25:35;;;;;;;10.73;5.68;;;;;;;7.93;100.00;93057.94;2134996;27;20218;-71
2022/11/01 00:26:36;;;;;;;10.07;4.97;;;;;;;7.95;100.00;93051.06;2134976;27;20187;-72
2022/11/01 00:27:36;;;;;;;9.23;4.82;;;;;;;8.04;100.00;93055.91;2129839;27;20704;-72
2022/11/01 00:28:37;;;;;;;9.73;4.88;;;;;;;8.03;100.00;93057.03;2125027;27;20023;-73
2022/11/01 00:29:38;;;;;;;12.18;5.00;;;;;;;7.92;100.00;93054.53;2134894;27;20376;-71
2022/11/01 00:30:40;;;;;;;8.63;4.80;;;;;;;7.98;100.00;93060.91;2135007;27;20045;-71
2022/11/01 00:31:41;;;;;;;12.73;5.82;;;;;;;7.96;100.00;93062.47;2135732;27;20041;-73
2022/11/01 00:32:43;;;;;;;10.05;4.82;;;;;;;7.98;100.00;93060.91;2135834;27;20110;-71
2022/11/01 00:33:44;;;;;;;14.40;5.38;;;;;;;7.92;100.00;93059.84;2132633;27;20552;-72
2022/11/01 00:34:44;;;;;;;9.07;5.32;;;;;;;7.90;100.00;93061.38;2135845;27;20117;-72
2022/11/01 00:35:47;;;;;;;11.65;5.20;;;;;;;7.92;100.00;93059.09;2133484;27;20038;-71
2022/11/01 00:36:48;;;;;;;13.75;5.55;;;;;;;7.86;100.00;93058.00;2135070;27;20714;-71
2022/11/01 00:37:49;;;;;;;7.82;4.55;;;;;;;7.90;100.00;93064.06;2135128;27;20027;-71
2022/11/01 00:38:51;;;;;;;9.43;4.72;;;;;;;7.93;100.00;93064.00;2132466;27;20046;-72
2022/11/01 00:39:52;;;;;;;10.38;5.03;;;;;;;7.88;100.00;93051.16;2134990;27;20038;-71
2022/11/01 00:40:53;;;;;;;12.07;5.35;;;;;;;7.91;100.00;93055.69;2135480;27;20027;-71
2022/11/01 00:41:54;;;;;;;9.25;4.68;;;;;;;7.92;100.00;93065.16;2135637;27;20027;-72
2022/11/01 00:42:55;;;;;;;16.60;4.80;;;;;;;7.91;100.00;93065.56;2135505;27;20018;-72
2022/11/01 00:43:56;;;;;;;8.60;4.60;;;;;;;7.90;100.00;93062.16;2134043;27;20079;-71
2022/11/01 00:44:58;;;;;;;13.75;5.25;;;;;;;7.87;100.00;93057.63;2135052;27;20384;-71
2022/11/01 00:46:00;;;;;;;9.85;4.72;;;;;;;7.87;100.00;93059.53;2135511;27;20036;-72
2022/11/01 00:47:01;;;;;;;7.03;4.53;;;;;;;7.87;100.00;93062.97;2129024;27;20416;-71
2022/11/01 00:48:02;;;;;;;14.73;5.30;;;;;;;7.92;100.00;93061.75;2135551;27;20372;-73
2022/11/01 00:49:03;;;;;;;8.20;4.65;;;;;;;7.90;100.00;93072.03;2135436;27;20086;-72
2022/11/01 00:50:04;;;;;;;12.55;5.03;;;;;;;7.85;100.00;93064.50;2135226;27;20026;-72
2022/11/01 00:51:05;;;;;;;8.75;5.00;;;;;;;7.89;100.00;93067.88;2135834;27;20066;-71
2022/11/01 00:52:06;;;;;;;7.50;4.72;;;;;;;7.91;100.00;93069.00;2135187;27;20480;-71
2022/11/01 00:53:10;;;;;;;8.55;5.05;;;;;;;7.86;100.00;93071.31;2135036;27;20041;-72
2022/11/01 00:54:11;;;;;;;8.48;4.93;;;;;;;7.89;100.00;93076.59;2135392;27;20356;-71
2022/11/01 00:55:12;;;;;;;10.07;5.25;;;;;;;7.90;100.00;93067.50;2135131;27;20026;-72
2022/11/01 00:56:13;;;;;;;8.52;5.35;;;;;;;7.88;100.00;93069.78;2134269;27;20050;-72
2022/11/01 00:57:14;;;;;;;9.25;5.13;;;;;;;7.99;100.00;93070.41;2132530;27;20018;-72
2022/11/01 00:58:15;;;;;;;14.80;4.70;;;;;;;7.90;100.00;93064.06;2134730;27;20050;-71
2022/11/01 00:59:16;;;;;;;10.88;4.50;;;;;;;7.97;100.00;93064.72;2134739;27;20439;-72
2022/11/01 01:00:17;;;;;;;8.68;4.20;;;;;;;8.02;100.00;93066.19;2121085;27;20092;-71
2022/11/01 01:01:18;;;;;;;17.63;5.40;;;;;;;8.04;100.00;93061.97;2125676;27;20074;-71
2022/11/01 01:02:19;;;;;;;10.20;5.20;;;;;;;8.01;100.00;93059.34;2132432;27;20018;-71
2022/11/01 01:03:20;;;;;;;9.27;4.68;;;;;;;8.00;100.00;93053.28;2135093;27;20090;-71
2022/11/01 01:04:21;;;;;;;9.90;4.70;;;;;;;8.00;100.00;93063.94;2138002;27;20086;-72
2022/11/01 01:05:22;;;;;;;12.95;4.85;;;;;;;7.95;100.00;93056.41;2131515;27;20433;-72
2022/11/01 01:06:23;;;;;;;10.52;5.72;;;;;;;7.94;100.00;93056.78;2125029;27;20065;-71
2022/11/01 01:07:24;;;;;;;9.70;4.90;;;;;;;7.97;100.00;93050.66;2126242;27;20059;-72
2022/11/01 01:08:26;;;;;;;13.15;4.85;;;;;;;8.00;100.00;93050.63;2135223;27;20030;-71
2022/11/01 01:09:28;;;;;;;10.60;4.85;;;;;;;7.97;100.00;93056.75;2135247;27;20427;-71
2022/11/01 01:10:29;;;;;;;11.25;4.60;;;;;;;7.97;100.00;93053.31;2133723;27;20495;-72
2022/11/01 01:11:30;;;;;;;11.95;4.95;;;;;;;8.00;100.00;93055.94;2135109;27;20030;-71
2022/11/01 01:12:32;;;;;;;7.47;4.50;;;;;;;7.97;100.00;93059.41;2134906;27;20063;-70
2022/11/01 01:13:33;;;;;;;9.75;4.97;;;;;;;7.99;100.00;93051.00;2134745;27;20029;-71
2022/11/01 01:14:35;;;;;;;7.68;4.72;;;;;;;7.95;100.00;93053.72;2135247;27;20034;-71
2022/11/01 01:15:38;;;;;;;13.70;4.90;;;;;;;8.01;100.00;93057.44;2134799;27;20030;-71
2022/11/01 01:16:38;;;;;;;9.48;4.47;;;;;;;8.03;100.00;93055.16;2131782;27;20039;-71
2022/11/01 01:17:41;;;;;;;9.82;4.32;;;;;;;8.10;100.00;93056.19;2135504;27;20053;-71
2022/11/01 01:18:41;;;;;;;15.75;4.55;;;;;;;8.09;100.00;93055.44;2134685;27;20018;-71
2022/11/01 01:19:43;;;;;;;11.27;5.10;;;;;;;8.10;100.00;93066.84;2134590;27;20065;-70
2022/11/01 01:20:44;;;;;;;11.77;4.40;;;;;;;8.07;100.00;93055.09;2135215;27;20026;-72
2022/11/01 01:21:45;;;;;;;8.30;4.55;;;;;;;8.09;100.00;93066.09;2131919;27;20050;-70
2022/11/01 01:22:46;;;;;;;17.08;5.22;;;;;;;8.10;100.00;93062.28;2134603;27;20368;-70
2022/11/01 01:23:47;;;;;;;9.35;4.38;;;;;;;8.09;100.00;93068.75;2134481;27;20027;-70
2022/11/01 01:24:48;;;;;;;10.57;5.00;;;;;;;8.06;100.00;93062.31;2135157;27;20138;-70
2022/11/01 01:25:49;;;;;;;10.13;4.70;;;;;;;8.10;100.00;93061.53;2132210;27;20030;-70
2022/11/01 01:26:50;;;;;;;13.25;5.28;;;;;;;8.12;100.00;93062.66;2134276;27;20034;-73
2022/11/01 01:27:51;;;;;;;11.75;5.10;;;;;;;8.14;100.00;93055.00;2135256;27;20751;-70
2022/11/01 01:28:53;;;;;;;7.40;4.57;;;;;;;8.21;100.00;93054.91;2135210;27;20030;-73
2022/11/01 01:29:54;;;;;;;10.07;4.85;;;;;;;8.33;100.00;93057.00;2134736;27;20023;-70
2022/11/01 01:30:55;;;;;;;9.63;4.45;;;;;;;8.31;100.00;93054.00;2134538;27;20044;-70
2022/11/01 01:31:56;;;;;;;9.98;4.93;;;;;;;8.32;100.00;93050.19;2134270;27;20027;-71
2022/11/01 01:32:57;;;;;;;7.07;4.70;;;;;;;8.23;100.00;93059.81;2135346;27;20464;-70
2022/11/01 01:33:58;;;;;;;11.50;4.68;;;;;;;8.29;100.00;93044.91;2134752;27;20076;-70
2022/11/01 01:34:59;;;;;;;11.23;5.03;;;;;;;8.28;100.00;93049.47;2135036;27;20099;-70
2022/11/01 01:36:02;;;;;;;9.65;4.47;;;;;;;8.27;100.00;93047.97;2130910;27;20026;-70
2022/11/01 01:37:03;;;;;;;13.82;4.43;;;;;;;8.24;100.00;93046.09;2134806;27;20363;-70
2022/11/01 01:38:05;;;;;;;12.48;4.93;;;;;;;8.25;100.00;93044.19;2134623;27;20022;-72
2022/11/01 01:39:06;;;;;;;10.88;4.72;;;;;;;8.24;100.00;93043.44;2135115;27;20113;-70
2022/11/01 01:40:08;;;;;;;14.38;5.22;;;;;;;8.26;100.00;93043.81;2125839;27;20022;-70
2022/11/01 01:42:34;;;;;;;10.68;4.93;;;;;;;8.37;100.00;93038.34;2134341;27;20030;-70
2022/11/01 01:43:44;;;;;;;11.23;4.82;;;;;;;8.33;100.00;93048.25;2122488;27;20035;-70
2022/11/01 01:44:49;;;;;;;;;;;;;;;8.50;100.00;93046.53;2135313;27;20034;-72
2022/11/01 01:45:49;;;;;;;11.65;4.28;;;;;;;8.45;100.00;93044.31;2134858;27;20321;-70
2022/11/01 01:46:50;;;;;;;9.48;4.80;;;;;;;8.37;100.00;93042.91;2135022;27;20109;-71
2022/11/01 01:47:54;;;;;;;10.82;4.50;;;;;;;8.36;100.00;93054.69;2124697;27;20018;-74
2022/11/01 01:48:58;;;;;;;8.55;4.55;;;;;;;8.40;100.00;93052.78;2126338;27;20485;-70
2022/11/01 01:50:07;;;;;;;13.40;4.93;;;;;;;8.46;100.00;93051.91;2134753;27;20105;-73
2022/11/01 01:51:16;;;;;;;11.73;4.38;;;;;;;8.38;100.00;93060.41;2131797;27;20067;-70
2022/11/01 01:52:18;;;;;;;8.32;3.92;;;;;;;8.35;100.00;93055.88;2135004;27;20026;-72
2022/11/01 01:53:37;;;;;;;9.02;4.30;;;;;;;8.35;100.00;93061.94;2131633;27;20376;-71
2022/11/01 01:54:38;;;;;;;9.55;4.85;;;;;;;8.38;100.00;93050.50;2131751;27;20113;-70
2022/11/01 01:55:46;;;;;;;11.55;4.38;;;;;;;8.62;100.00;93053.97;2125677;27;20026;-72
2022/11/01 01:56:48;;;;;;;11.93;4.70;;;;;;;8.49;100.00;93059.09;2126784;27;20045;-71
2022/11/01 01:57:51;;;;;;;10.90;5.00;;;;;;;8.41;100.00;93049.69;2134953;27;20034;-71
2022/11/01 01:59:00;;;;;;;7.63;4.38;;;;;;;8.35;100.00;93053.94;2131241;27;20094;-71
2022/11/01 02:00:01;;;;;;;10.38;4.72;;;;;;;8.32;100.00;93058.16;2130610;27;20106;-73
2022/11/01 02:01:02;;;;;;;10.98;4.25;;;;;;;8.31;100.00;93067.31;2125665;27;20026;-70
2022/11/01 02:02:03;;;;;;;11.77;4.95;;;;;;;8.38;100.00;93055.81;2117317;27;20095;-71
2022/11/01 02:03:06;;;;;;;8.10;4.15;;;;;;;8.33;100.00;93056.25;2125393;27;20063;-72
2022/11/01 02:04:19;;;;;;;8.63;4.25;;;;;;;8.30;100.00;93059.75;2133034;27;20427;-70
2022/11/01 02:05:27;;;;;;;10.73;4.50;;;;;;;8.34;100.00;93055.13;2134822;27;20038;-71
2022/11/01 02:06:31;;;;;;;13.95;4.63;;;;;;;8.32;100.00;93063.50;2135282;27;20360;-70
2022/11/01 02:07:32;;;;;;;8.13;3.83;;;;;;;8.27;100.00;93063.19;2130472;27;20046;-70
2022/11/01 02:08:35;;;;;;;10.02;4.05;;;;;;;8.26;100.00;93061.69;2134861;27;20066;-70
2022/11/01 02:09:37;;;;;;;10.93;4.25;;;;;;;8.25;100.00;93052.97;2131583;27;20464;-72
2022/11/01 02:10:38;;;;;;;8.80;4.38;;;;;;;8.20;100.00;93061.38;2134947;27;20026;-70
2022/11/01 02:11:39;;;;;;;7.90;4.25;;;;;;;8.15;100.00;93058.41;2134916;27;20053;-73
2022/11/01 02:12:46;;;;;;;8.98;4.45;;;;;;;8.18;100.00;93073.59;2134988;27;20464;-69
2022/11/01 02:13:48;;;;;;;9.30;4.00;;;;;;;8.31;100.00;93071.88;2134478;27;20038;-70
2022/11/01 02:16:37;;;;;;;;;;;;;;;8.28;100.00;93060.13;2147331;27;20102;-70
2022/11/01 02:18:03;;;;;;;10.88;4.25;;;;;;;8.32;100.00;93052.09;2140489;27;19910;-72
2022/11/01 02:19:28;;;;;;;9.23;4.20;;;;;;;8.31;100.00;93053.25;2137671;27;20482;-71
2022/11/01 02:20:53;;;;;;;7.00;4.93;;;;;;;8.30;100.00;93057.06;2141972;27;20022;-73
2022/11/01 02:22:12;;;;;;;8.05;4.15;;;;;;;8.29;100.00;93061.63;2141532;27;20038;-72
2022/11/01 02:23:13;;;;;;;13.38;4.57;;;;;;;8.35;100.00;93075.25;2141536;27;20038;-71
2022/11/01 02:24:38;;;;;;;6.35;3.97;;;;;;;8.37;100.00;93080.97;2141439;27;20034;-71
2022/11/01 02:26:00;;;;;;;9.60;4.10;;;;;;;8.45;100.00;93078.94;2129947;27;20030;-71
2022/11/01 02:27:25;;;;;;;9.38;4.18;;;;;;;8.50;100.00;93073.91;2133449;27;20064;-74
2022/11/01 02:28:28;;;;;;;15.57;4.57;;;;;;;9.49;100.00;93081.47;2142362;27;20030;-75
2022/11/01 02:29:41;;;;;;;12.27;4.10;;;;;;;10.47;100.00;93071.13;2140573;27;20124;-72
2022/11/01 02:30:55;;;;;;;12.70;4.40;;;;;;;10.49;100.00;93076.03;2139691;27;20371;-73
2022/11/01 02:32:02;;;;;;;13.90;4.00;;;;;;;10.91;100.00;93081.59;2142249;27;20046;-71
2022/11/01 02:33:12;;;;;;;15.23;4.15;;;;;;;11.09;100.00;93079.25;2138425;27;20451;-71
2022/11/01 02:34:39;;;;;;;14.48;4.13;;;;;;;11.13;100.00;93079.91;2142159;27;20030;-72
2022/11/01 02:35:40;;;;;;;11.25;4.90;;;;;;;11.10;100.00;93083.41;2139372;27;20018;-72
2022/11/01 02:36:56;;;;;;;13.85;4.28;;;;;;;11.29;100.00;93081.81;2142224;27;20030;-72
2022/11/01 02:38:03;;;;;;;14.10;4.50;;;;;;;11.21;100.00;93078.56;2141852;27;20061;-74
2022/11/01 02:39:17;;;;;;;18.25;4.55;;;;;;;11.35;100.00;93083.56;2138522;27;20046;-72
2022/11/01 02:40:52;;;;;;;15.88;4.13;;;;;;;11.51;100.00;93080.09;2142158;27;20037;-74
2022/11/01 02:42:01;;;;;;;10.60;4.05;;;;;;;11.74;100.00;93073.75;2137294;27;20026;-72
2022/11/01 02:43:10;;;;;;;14.00;3.95;;;;;;;11.82;100.00;93077.00;2138126;27;20026;-70
2022/11/01 02:44:17;;;;;;;13.98;4.05;;;;;;;12.10;100.00;93081.59;2142029;27;20117;-73
2022/11/01 02:45:28;;;;;;;13.88;4.00;;;;;;;12.38;100.00;93073.94;2132273;27;20119;-72
2022/11/01 02:48:01;;;;;;;11.63;3.80;;;;;;;12.21;100.00;93080.56;2141396;27;20353;-73
2022/11/01 02:49:03;;;;;;;11.60;4.68;;;;;;;12.44;100.00;93061.50;2137417;27;20034;-74
2022/11/01 02:50:08;;;;;;;15.30;4.57;;;;;;;12.49;100.00;93073.63;2141933;27;20032;-74
2022/11/01 02:51:11;;;;;;;12.27;3.85;;;;;;;12.65;100.00;93076.19;2141610;27;20025;-73
2022/11/01 02:52:21;;;;;;;11.80;4.07;;;;;;;12.53;100.00;93074.25;2142150;27;20026;-72
2022/11/01 02:53:22;;;;;;;9.93;3.72;;;;;;;12.47;100.00;93073.31;2141706;27;20110;-69
2022/11/01 02:54:38;;;;;;;14.40;4.25;;;;;;;12.75;100.00;93066.31;2141361;27;20030;-73
2022/11/01 02:55:39;;;;;;;10.32;3.15;;;;;;;12.93;100.00;93077.25;2132280;27;20524;-71
2022/11/01 02:56:40;;;;;;;13.45;3.38;;;;;;;12.76;100.00;93068.56;2132912;27;20368;-71
2022/11/01 02:57:42;;;;;;;7.18;3.03;;;;;;;12.86;100.00;93074.78;2142098;27;20079;-72
2022/11/01 02:58:47;;;;;;;10.90;3.17;;;;;;;12.64;100.00;93068.56;2132950;27;20019;-72
2022/11/01 02:59:48;;;;;;;11.18;3.40;;;;;;;12.76;100.00;93065.13;2133673;27;20031;-72
2022/11/01 03:00:50;;;;;;;9.82;3.03;;;;;;;12.95;100.00;93069.53;2139240;27;20026;-69
2022/11/01 03:02:06;;;;;;;10.60;3.25;;;;;;;12.81;100.00;93069.94;2142230;27;20026;-72
2022/11/01 03:03:12;;;;;;;7.85;3.28;;;;;;;12.81;100.00;93070.69;2139445;27;20022;-74
2022/11/01 03:04:13;;;;;;;13.75;3.30;;;;;;;13.02;100.00;93069.28;2142008;27;20102;-73
2022/11/01 03:05:35;;;;;;;9.93;2.83;;;;;;;13.11;100.00;93068.63;2144597;27;20097;-73
2022/11/01 03:06:43;;;;;;;11.30;2.60;;;;;;;13.01;100.00;93067.78;2138558;27;20041;-72
2022/11/01 03:07:50;;;;;;;5.03;1.90;;;;;;;13.11;100.00;93065.94;2142075;27;20359;-72
2022/11/01 03:09:03;;;;;;;8.60;2.67;;;;;;;13.05;100.00;93081.09;2142115;27;20034;-72
2022/11/01 03:10:05;;;;;;;9.93;2.60;;;;;;;12.99;100.00;93078.19;2138184;27;20051;-72
2022/11/01 03:11:11;;;;;;;6.78;1.73;;;;;;;12.84;100.00;93077.16;2141018;27;20026;-74
2022/11/01 03:12:24;;;;;;;9.25;1.95;;;;;;;12.82;100.00;93090.25;2139404;27;20026;-72
2022/11/01 03:13:37;;;;;;;5.90;1.85;;;;;;;12.96;100.00;93075.63;2141649;27;20037;-72
2022/11/01 03:15:01;;;;;;;6.35;2.20;;;;;;;12.89;100.00;93087.34;2138752;27;20077;-72
2022/11/01 03:16:30;;;;;;;4.90;1.73;;;;;;;12.87;100.00;93078.97;2137194;27;20076;-72
2022/11/01 03:18:03;;;;;;;3.92;1.48;;;;;;;12.74;100.00;93080.91;2139117;27;20030;-72
2022/11/01 03:19:34;;;;;;;4.13;1.50;;;;;;;12.72;100.00;93075.97;2137934;27;20025;-72
2022/11/01 03:20:53;;;;;;;6.68;1.70;;;;;;;12.63;100.00;93085.84;2138272;27;20045;-71
2022/11/01 03:22:25;;;;;;;7.25;1.70;;;;;;;12.67;100.00;93083.81;2142841;27;20025;-71
2022/11/01 03:23:35;;;;;;;7.60;1.60;;;;;;;12.60;100.00;93082.84;2140691;27;20026;-73
2022/11/01 03:24:59;;;;;;;5.30;1.70;;;;;;;12.46;100.00;93082.50;2139356;27;20038;-72
2022/11/01 03:26:05;;;;;;;3.85;1.75;;;;;;;12.68;100.00;93079.94;2141482;27;20567;-73
2022/11/01 03:27:32;;;;;;;5.90;1.80;;;;;;;12.72;100.00;93080.59;2128354;27;20484;-72
2022/11/01 03:28:43;;;;;;;5.03;1.40;;;;;;;12.55;100.00;93085.28;2132169;27;20154;-72
2022/11/01 03:29:55;;;;;;;4.03;1.70;;;;;;;12.53;100.00;93076.94;2136068;27;20113;-72
2022/11/01 03:31:07;;;;;;;5.65;1.40;;;;;;;12.46;100.00;93096.66;2136196;27;20031;-72
2022/11/01 03:32:09;;;;;;;3.58;1.20;;;;;;;12.49;100.00;93082.41;2131496;27;20736;-72
2022/11/01 03:33:15;;;;;;;2.05;1.30;;;;;;;12.44;100.00;93088.31;2135887;27;20014;-72
2022/11/01 03:34:18;;;;;;;4.28;1.63;;;;;;;12.39;100.00;93093.44;2135469;27;20027;-72
2022/11/01 03:35:24;;;;;;;3.65;1.13;;;;;;;12.55;100.00;93093.34;2135273;27;20427;-72
2022/11/01 03:36:31;;;;;;;3.78;1.02;;;;;;;12.70;100.00;93086.38;2135413;27;20534;-72
2022/11/01 03:37:35;;;;;;;1.80;1.17;;;;;;;12.70;100.00;93089.06;2123836;27;20034;-72
2022/11/01 03:38:40;;;;;;;2.40;1.25;;;;;;;12.81;100.00;93088.72;2136107;27;20038;-73
2022/11/01 03:39:46;;;;;;;3.72;1.02;;;;;;;12.64;100.00;93093.44;2135817;27;20023;-72
2022/11/01 03:40:59;;;;;;;3.92;1.13;;;;;;;12.44;100.00;93106.31;2135437;27;20134;-72
2022/11/01 03:42:08;;;;;;;1.05;0.90;;;;;;;12.49;100.00;93105.78;2135581;27;20444;-74
2022/11/01 03:43:12;;;;;;;2.28;0.95;;;;;;;12.46;100.00;93109.31;2132216;27;20113;-72
2022/11/01 03:44:13;;;;;;;1.38;0.90;;;;;;;12.40;100.00;93103.75;2133016;27;20033;-72
2022/11/01 03:45:22;;;;;;;2.60;1.02;;;;;;;12.37;100.00;93109.94;2138573;27;20113;-72
2022/11/01 03:46:23;;;;;;;2.78;0.90;;;;;;;12.29;100.00;93111.31;2135943;27;20023;-72
2022/11/01 03:47:24;;;;;;;1.73;0.90;;;;;;;12.24;100.00;93109.16;2136874;27;20467;-72
2022/11/01 03:48:25;;;;;;;2.47;1.20;;;;;;;12.22;100.00;93106.19;2135277;27;20703;-72
2022/11/01 03:49:26;;;;;;;2.28;1.00;;;;;;;12.28;100.00;93113.25;2135611;27;20404;-74
2022/11/01 03:50:28;;;;;;;4.30;0.90;;;;;;;12.31;100.00;93107.03;2135919;27;20045;-75
2022/11/01 03:51:29;;;;;;;3.42;1.13;;;;;;;12.34;100.00;93108.13;2135826;27;20457;-71
2022/11/01 03:52:29;;;;;;;2.70;0.90;;;;;;;12.33;100.00;93106.59;2135958;27;20022;-72
2022/11/01 03:53:32;;;;;;;4.38;1.27;;;;;;;12.22;100.00;93112.28;2131215;27;20106;-73
2022/11/01 03:54:33;;;;;;;2.20;0.90;;;;;;;12.13;100.00;93103.38;2135773;27;20042;-72
2022/11/01 03:55:34;;;;;;;0.82;0.68;;;;;;;12.10;100.00;93113.00;2135813;27;20109;-72
2022/11/01 03:56:39;;;;;;;1.60;0.80;;;;;;;12.05;100.00;93108.91;2135511;27;20030;-72
2022/11/01 03:57:41;;;;;;;2.55;0.90;;;;;;;12.16;100.00;93111.31;2135275;27;20057;-72
2022/11/01 03:58:43;;;;;;;1.95;0.93;;;;;;;12.12;100.00;93116.03;2128813;27;20030;-74
2022/11/01 03:59:45;;;;;;;1.55;1.00;;;;;;;12.05;100.00;93116.22;2135889;27;20372;-72
2022/11/01 04:00:46;;;;;;;2.35;0.80;;;;;;;12.10;100.00;93115.69;2126684;27;20039;-73
2022/11/01 04:01:47;;;;;;;1.42;0.70;;;;;;;12.27;100.00;93111.75;2126654;27;20023;-73
2022/11/01 04:02:52;;;;;;;2.53;0.95;;;;;;;12.43;100.00;93123.59;2126621;27;20031;-73
2022/11/01 04:03:53;;;;;;;2.25;0.70;;;;;;;12.33;100.00;93120.00;2118961;27;20019;-72
2022/11/01 04:04:54;;;;;;;7.43;1.25;;;;;;;12.41;100.00;93120.56;2126415;27;20027;-73
2022/11/01 04:05:55;;;;;;;2.70;0.93;;;;;;;12.31;100.00;93131.16;2125779;27;20051;-75
2022/11/01 04:06:56;;;;;;;3.05;0.93;;;;;;;12.69;100.00;93119.00;2125392;27;20381;-73
2022/11/01 04:07:57;;;;;;;1.00;0.82;;;;;;;12.62;100.00;93127.25;2125845;27;20118;-73
2022/11/01 04:08:58;;;;;;;2.42;1.02;;;;;;;12.66;100.00;93127.91;2112931;27;20066;-73
2022/11/01 04:09:59;;;;;;;4.18;1.05;;;;;;;12.63;100.00;93126.06;2125892;27;20027;-73
2022/11/01 04:11:00;;;;;;;1.58;0.75;;;;;;;12.41;100.00;93126.69;2134970;27;20033;-74
2022/11/01 04:12:01;;;;;;;4.40;1.00;;;;;;;12.55;100.00;93131.63;2130866;27;20026;-73
2022/11/01 04:13:03;;;;;;;1.30;0.88;;;;;;;12.46;100.00;93131.50;2135560;27;20158;-73
2022/11/01 04:21:18;;;;;;;2.38;1.08;;;;;;;12.48;100.00;93136.47;2134928;27;20114;-73
2022/11/01 04:22:18;;;;;;;3.90;1.08;;;;;;;12.60;100.00;93144.53;2133852;27;20034;-74
2022/11/01 04:23:19;;;;;;;1.25;1.05;;;;;;;12.49;100.00;93130.66;2134737;27;20022;-73
2022/11/01 04:24:20;;;;;;;5.80;1.42;;;;;;;12.57;100.00;93129.28;2134057;27;20069;-74
2022/11/01 04:25:21;;;;;;;3.15;1.30;;;;;;;12.65;100.00;93135.19;2134986;27;20076;-73
2022/11/01 04:26:23;;;;;;;2.60;1.00;;;;;;;12.59;100.00;93134.97;2135648;27;20038;-73
2022/11/01 04:27:24;;;;;;;3.83;0.82;;;;;;;12.54;100.00;93140.09;2135619;27;20026;-74
2022/11/01 04:28:25;;;;;;;2.70;1.05;;;;;;;12.49;100.00;93146.75;2135703;27;20022;-73
2022/11/01 04:29:26;;;;;;;3.10;0.95;;;;;;;12.42;100.00;93138.16;2132829;27;20131;-73
2022/11/01 04:30:28;;;;;;;1.77;0.70;;;;;;;12.52;100.00;93142.47;2135119;27;20022;-72
2022/11/01 04:31:34;;;;;;;5.30;1.02;;;;;;;12.39;100.00;93145.13;2134875;27;20035;-72
2022/11/01 04:32:35;;;;;;;3.75;0.90;;;;;;;12.53;100.00;93150.06;2131420;27;20038;-72
2022/11/01 04:33:37;;;;;;;2.22;0.90;;;;;;;12.53;100.00;93155.44;2135156;27;20045;-74
2022/11/01 04:34:43;;;;;;;0.70;0.68;;;;;;;12.78;100.00;93149.38;2135407;27;20018;-74
2022/11/01 04:35:44;;;;;;;2.22;0.98;;;;;;;12.85;100.00;93143.03;2135491;27;20034;-71
2022/11/01 04:36:45;;;;;;;3.15;0.77;;;;;;;12.82;100.00;93143.91;2135615;27;20031;-74
2022/11/01 04:37:46;;;;;;;1.42;0.45;;;;;;;12.59;100.00;93139.56;2135418;27;20038;-72
2022/11/01 04:38:50;;;;;;;1.33;0.65;;;;;;;12.44;100.00;93133.13;2135052;27;20030;-74
2022/11/01 04:39:52;;;;;;;1.63;0.60;;;;;;;12.39;100.00;93139.03;2132634;27;20597;-72
2022/11/01 04:40:53;;;;;;;1.13;0.77;;;;;;;12.35;100.00;93139.88;2135428;27;20037;-74
2022/11/01 04:41:54;;;;;;;8.73;1.17;;;;;;;12.32;100.00;93148.00;2135431;27;20026;-73
2022/11/01 04:42:55;;;;;;;2.25;0.73;;;;;;;12.31;100.00;93154.53;2135398;27;20035;-73
2022/11/01 04:43:57;;;;;;;3.78;0.80;;;;;;;12.40;100.00;93138.59;2135132;27;20090;-73
2022/11/01 04:44:58;;;;;;;2.53;0.57;;;;;;;12.28;100.00;93139.31;2134420;27;20031;-72
2022/11/01 04:45:59;;;;;;;2.85;0.77;;;;;;;12.43;100.00;93139.69;2135366;27;20095;-72
2022/11/01 04:47:00;;;;;;;1.63;0.70;;;;;;;12.66;100.00;93146.66;2137388;27;20061;-72
2022/11/01 04:48:12;;;;;;;2.38;0.60;;;;;;;12.78;100.00;93143.25;2131198;27;20536;-72
2022/11/01 04:49:13;;;;;;;5.40;0.90;;;;;;;12.68;100.00;93146.97;2135515;27;20037;-72
2022/11/01 04:50:14;;;;;;;1.08;0.50;;;;;;;12.55;100.00;93146.97;2134671;27;20065;-72
2022/11/01 04:51:15;;;;;;;1.52;0.45;;;;;;;12.64;100.00;93140.97;2135347;27;20074;-72
2022/11/01 04:52:16;;;;;;;1.95;0.63;;;;;;;12.76;100.00;93145.59;2135288;27;20035;-72
2022/11/01 04:53:17;;;;;;;1.63;0.88;;;;;;;12.72;100.00;93144.94;2135043;27;20026;-73
2022/11/01 04:54:18;;;;;;;0.98;0.60;;;;;;;12.71;100.00;93154.19;2135341;27;20037;-74
2022/11/01 04:55:19;;;;;;;3.28;0.50;;;;;;;12.62;100.00;93152.13;2136759;27;20030;-72
2022/11/01 04:56:20;;;;;;;0.93;0.45;;;;;;;12.60;100.00;93147.22;2135265;27;20026;-73
2022/11/01 04:57:24;;;;;;;0.65;0.45;;;;;;;12.52;100.00;93162.00;2135487;27;20705;-73
2022/11/01 04:58:24;;;;;;;0.82;0.50;;;;;;;12.52;100.00;93167.34;2125916;27;20031;-72
2022/11/01 04:59:25;;;;;;;2.63;0.70;;;;;;;12.50;100.00;93171.63;2126146;27;20070;-73
2022/11/01 05:00:26;;;;;;;0.60;0.45;;;;;;;12.41;100.00;93176.88;2135512;27;20033;-73
2022/11/01 05:01:27;;;;;;;1.27;0.52;;;;;;;12.46;100.00;93168.28;2134383;27;20451;-73
2022/11/01 05:02:29;;;;;;;0.75;0.35;;;;;;;12.48;100.00;93169.38;2139817;27;20038;-72
2022/11/01 05:03:29;;;;;;;0.43;0.30;;;;;;;12.52;100.00;93172.72;2135124;27;20034;-73
2022/11/01 05:04:30;;;;;;;1.77;0.77;;;;;;;12.46;100.00;93174.41;2131140;27;20049;-72
2022/11/01 05:05:33;;;;;;;0.40;0.40;;;;;;;12.33;100.00;93178.97;2135615;27;20054;-73
2022/11/01 05:06:34;;;;;;;0.60;0.60;;;;;;;12.46;100.00;93184.38;2133157;27;20034;-72
2022/11/01 05:07:35;;;;;;;1.40;0.40;;;;;;;12.45;100.00;93180.94;2135437;27;20030;-73
2022/11/01 05:08:36;;;;;;;0.98;0.50;;;;;;;12.50;100.00;93196.50;2131860;27;20041;-72
2022/11/01 05:09:37;;;;;;;0.88;0.40;;;;;;;12.39;100.00;93188.03;2138705;27;20375;-73
2022/11/01 05:10:42;;;;;;;2.15;0.73;;;;;;;12.35;100.00;93198.09;2131810;27;20027;-72
2022/11/01 05:11:43;;;;;;;1.40;0.50;;;;;;;12.45;100.00;93197.03;2135641;27;20402;-72